Montreal / St-Lazare Airport

CST3 · Quebeque, Canadá

História da METAR CST3 · Montreal / St-Lazare Airport

Abaixo você vê METARs dos últimos dias. Selecione um ano para navegar pelos METARs mais antigos, a partir do ano 2007.

14 de abril de 2024

Hora Código Clima Temp. Visibilidade Tecto Vento METAR/SPECI
02:00
M
5 °C 15 mi 2.200 ft 270° 270° 14 kt METAR CYUL 140600Z 27014KT 15SM OVC022 05/01 A2971 RMK SC8 SLP065
01:00
M
4 °C 15 mi 2.300 ft 280° 280° 9 - 17 kt METAR CYUL 140500Z 28009G17KT 15SM BKN023 04/01 A2970 RMK SC7 SLP060
00:00
M
4 °C 15 mi 2.200 ft 290° 290° 11 - 16 kt METAR CYUL 140400Z 29011G16KT 15SM BKN022 BKN240 04/00 A2968 RMK SC7CI1 CI TR SLP054

13 de abril de 2024

Hora Código Clima Temp. Visibilidade Tecto Vento METAR/SPECI
23:00
M
4 °C 15 mi 2.000 ft 290° 290° 10 - 15 kt METAR CYUL 140300Z 29010G15KT 15SM BKN020 OVC075 04/01 A2967 RMK SC5AC3 SLP051
22:00
V
4 °C 15 mi 6.000 ft 280° 280° 14 - 21 kt METAR CYUL 140200Z 28014G21KT 15SM SCT020 OVC060 04/01 A2966 RMK SC3SC5 SLP047
21:22
V
4 °C 15 mi 5.500 ft 290° 290° 15 - 21 kt METAR CYUL 140122Z 29015G21KT 15SM FEW025 OVC055 04/M00 A2965 RMK SF1SC8 SF TR SLP044
21:00
V
4 °C 8 mi 4.000 ft 290° 290° 16 - 23 kt METAR CYUL 140100Z 29016G23KT 8SM -RA FEW020 OVC040 04/00 A2965 RMK CF1SC7 SLP042
20:00
M
4 °C 8 mi 3.000 ft 300° 300° 15 - 24 kt METAR CYUL 140000Z 30015G24KT 8SM -RA OVC030 04/00 A2960 RMK SC8 SLP026
19:00
M
5 °C 12 mi 2.000 ft 300° 300° 14 - 21 kt METAR CYUL 132300Z 30014G21KT 12SM -RA BKN020 OVC030 05/01 A2956 RMK SC6SC2 SLP012
18:00
M
5 °C 8 mi 1.700 ft 290° 290° 18 - 28 kt METAR CYUL 132200Z 29018G28KT 8SM -RA BKN017 OVC028 05/02 A2952 RMK SC5SC3 SLP000
17:00
M
5 °C 15 mi 1.800 ft 290° 290° 19 - 26 kt METAR CYUL 132100Z 29019G26KT 15SM -RA FEW013 BKN018 OVC033 05/02 A2949 RMK CF1SC5SC3 CF TR -RA INTMT SLP988
16:00
M
6 °C 8 mi 2.400 ft 280° 280° 19 - 27 kt METAR CYUL 132000Z 28019G27KT 8SM -RA SCT015 BKN024 OVC033 06/03 A2944 RMK CF3SC3SC2 SLP974
15:00
M
6 °C 8 mi 3.000 ft 270° 270° 19 - 26 kt METAR CYUL 131900Z 27019G26KT 8SM -SHRA FEW014 SCT020 BKN030 OVC045 06/04 A2942 RMK CF2CU1SC4SC1 SLP966
14:00
M
7 °C 8 mi 2.300 ft 240° 240° 17 kt METAR CYUL 131800Z 24017KT 8SM -RA FEW015 BKN023 OVC045 07/04 A2940 RMK CF2SC5SC1 SLP959
13:13
M
7 °C 10 mi 2.000 ft 240° 240° 16 - 21 kt METAR CYUL 131713Z 24016G21KT 10SM -SHRA BKN020 BKN030 OVC060 07/03 A2939 RMK SC6CU1SC1 SLP956
13:00
M
7 °C 15 mi 2.800 ft 230° 230° 15 - 21 kt METAR CYUL 131700Z 23015G21KT 15SM FEW016 BKN028 OVC040 07/03 A2939 RMK CF1SC5SC3 CF TR SLP955
12:44
V
8 °C 15 mi 4.000 ft 240° 240° 15 - 21 kt METAR CYUL 131644Z 24015G21KT 15SM FEW020 FEW025 OVC040 08/04 A2939 RMK CF1CU1SC6 SLP954
12:00
M
7 °C 8 mi 2.400 ft 230° 230° 15 - 21 kt METAR CYUL 131600Z 23015G21KT 8SM -RA FEW018 BKN024 OVC040 07/04 A2938 RMK CF1SC6SC1 SLP951
11:00
M
7 °C 10 mi 2.200 ft 240° 240° 13 kt METAR CYUL 131500Z 24013KT 10SM -RA FEW016 BKN022 OVC040 07/04 A2937 RMK CF1SC7SC1 CF TR SLP948
10:00
M
7 °C 8 mi 2.600 ft 230° 230° 14 - 19 kt METAR CYUL 131400Z 23014G19KT 8SM -SHRA FEW018 BKN026 OVC040 07/04 A2935 RMK CF1SC7SC1 CVCTV CLD EMBD SLP941
09:00
M
7 °C 15 mi 2.800 ft 240° 240° 17 - 22 kt METAR CYUL 131300Z 24017G22KT 15SM -SHRA FEW020 BKN028 OVC050 07/02 A2933 RMK CF1SC6SC2 CF TR CVCTV CLD EMBD SLP934
08:00
V
8 °C 30 mi 14.000 ft 230° 230° 13 - 19 kt METAR CYUL 131200Z 23013G19KT 30SM FEW012 SCT027 BKN140 BKN210 08/02 A2931 RMK SF1SC4AC3CC1 SF TR CC TR SLP928
07:00
V
8 °C 30 mi 21.000 ft 240° 240° 12 kt METAR CYUL 131100Z 24012KT 30SM FEW012 FEW050 SCT070 BKN210 08/03 A2930 RMK CF1SC2AC2CC3 CF TR SLP923
06:00
V
8 °C 15 mi 5.500 ft 240° 240° 14 kt METAR CYUL 131000Z 24014KT 15SM -RA FEW040 OVC055 08/04 A2929 RMK SC1SC8 SC TR SLP920
05:53
V
8 °C 12 mi 5.500 ft 240° 240° 14 kt METAR CYUL 130953Z 24014KT 12SM -RA FEW040 OVC055 08/04 A2928 RMK SC1SC8 SC TR SLP919
05:00
V
8 °C 15 mi 3.700 ft 240° 240° 8 kt METAR CYUL 130900Z 24008KT 15SM FEW012 SCT028 OVC037 08/05 A2928 RMK SF1SC3SC5 SF TR SLP916
04:00
M
8 °C 15 mi 3.000 ft 260° 260° 9 kt METAR CYUL 130800Z 26009KT 15SM FEW012 FEW020 BKN030 OVC042 08/06 A2927 RMK SF1SC1SC7SC1 SF TR SC TR SLP913
03:43
V
9 °C 10 mi 4.000 ft 260° 260° 12 kt METAR CYUL 130743Z 26012KT 10SM -SHRA OVC040 09/06 A2926 RMK SC8 CVCTV CLD EMBD SLP912
03:00
V
10 °C 15 mi 3.200 ft 190° 190° 8 kt METAR CYUL 130700Z 19008KT 15SM BKN032 OVC085 10/07 A2925 RMK SC7AC1 SLP909 DENSITY ALT 400FT
02:00
V
10 °C 15 mi 7.500 ft 170° 170° 8 kt METAR CYUL 130600Z 17008KT 15SM FEW035 BKN075 OVC100 10/07 A2925 RMK SC1AC7AC1 SC TR SLP908 DENSITY ALT 400FT
01:00
V
10 °C 15 mi 6.500 ft 160° 160° 6 kt METAR CYUL 130500Z 16006KT 15SM FEW037 BKN065 OVC100 10/08 A2926 RMK SC1SC7AC1 SC TR SLP911
00:00
V
10 °C 15 mi - 180° 180° 8 kt METAR CYUL 130400Z 18008KT 15SM FEW040 SCT052 10/08 A2926 RMK SC1SC3 SLP910

12 de abril de 2024

Hora Código Clima Temp. Visibilidade Tecto Vento METAR/SPECI
23:00
V
10 °C 15 mi 5.800 ft 170° 170° 7 kt METAR CYUL 130300Z 17007KT 15SM SCT035 OVC058 10/08 A2925 RMK SC3SC5 SLP908 DENSITY ALT 400FT
22:00
V
10 °C 12 mi 5.000 ft 190° 190° 7 kt METAR CYUL 130200Z 19007KT 12SM FEW011 BKN050 OVC095 10/08 A2925 RMK SF1SC7AC1 SF TR SLP908 DENSITY ALT 400FT
21:47
V
10 °C 15 mi 9.500 ft 170° 170° 6 kt METAR CYUL 130147Z 17006KT 15SM FEW011 FEW075 BKN095 OVC170 10/09 A2925 RMK SF1AC1AC6AC1 SF TR SLP909
21:00
V
10 °C 8 mi 8.000 ft 240° 240° 5 kt METAR CYUL 130100Z 24005KT 8SM -RA FEW012 FEW043 OVC080 10/08 A2924 RMK SF1SC1AC7 SF TR SLP904
20:00
V
10 °C 10 mi 6.000 ft 250° 250° 12 kt METAR CYUL 130000Z 25012KT 10SM -RA SCT030 OVC060 10/08 A2922 RMK SC3SC5 SLP896 DENSITY ALT 400FT
19:00
V
11 °C 15 mi 5.500 ft 260° 260° 9 kt METAR CYUL 122300Z 26009KT 15SM -RA OVC055 11/09 A2918 RMK SC8 SLP883 DENSITY ALT 600FT
18:38
V
11 °C 15 mi 4.800 ft 260° 260° 9 kt METAR CYUL 122238Z 26009KT 15SM -RA FEW014 OVC048 11/09 A2917 RMK SC2SC6 SLP879 DENSITY ALT 600FT
18:15
V
11 °C 8 mi 4.500 ft 230° 230° 5 kt METAR CYUL 122215Z 23005KT 8SM RA OVC045 11/10 A2916 RMK SC8 SLP878 DENSITY ALT 600FT
18:00
V
11 °C 12 mi 4.500 ft 250° 250° 4 kt METAR CYUL 122200Z CCA 25004KT 12SM -RA BKN045 OVC065 11/10 A2916 RMK SC7SC1 /R10/ SLP876 DENSITY ALT 600FT
17:35
V
11 °C 8 mi 5.000 ft 260° 260° 7 kt METAR CYUL 122135Z 26007KT 8SM -SHRA SCT013TCU OVC050 11/10 A2915 RMK TCU3SC5 SLP873 DENSITY ALT 600FT
17:17
M
11 °C 3 mi 1.100 ft 230° 230° 8 kt METAR CYUL 122117Z 23008KT 3SM SHRA BKN011TCU OVC030 11/10 A2917 RMK TCU6SC2 SLP879 DENSITY ALT 600FT
17:12
M
11 °C 10 mi 1.400 ft 230° 230° 9 kt METAR CYUL 122112Z 23009KT 10SM -SHRA FEW008 BKN014TCU OVC037 11/10 A2916 RMK SF2TCU4SC2 SLP878 DENSITY ALT 600FT
17:00
M
11 °C 4 mi 1.400 ft 240° 240° 7 kt METAR CYUL 122100Z 24007KT 4SM SHRA SCT009 BKN014TCU OVC030 11/10 A2915 RMK SF3TCU4SC1 SLP875 DENSITY ALT 600FT
16:50
I
12 °C 2½ mi 1.300 ft 250° 250° 8 kt METAR CYUL 122050Z 25008KT 2 1/2SM SHRA FEW008 BKN013TCU OVC030 12/10 A2915 RMK SF2TCU5SC1 SLP875 DENSITY ALT 700FT
16:39
M
12 °C 10 mi 1.300 ft 250° 250° 6 kt METAR CYUL 122039Z 25006KT 10SM -SHRA FEW008 BKN013TCU OVC030 12/10 A2915 RMK SF1TCU5SC2 SLP873 DENSITY ALT 700FT
16:23
M
12 °C 8 mi 1.500 ft 270° 270° 8 kt METAR CYUL 122023Z 27008KT 8SM -SHRA FEW008 BKN015TCU OVC030 12/10 A2914 RMK SF2TCU3SC3 SLP872 DENSITY ALT 700FT
16:07
M
12 °C 4 mi 1.400 ft 260° 260° 14 kt METAR CYUL 122007Z 26014KT 4SM SHRA FEW008 BKN014TCU OVC030 12/10 A2915 RMK SF2TCU4SC2 SLP873 DENSITY ALT 700FT
15:53
I
12 °C 2½ mi 600 ft 230° 230° 7 kt METAR CYUL 121953Z 23007KT 200V280 2 1/2SM SHRA BKN006 OVC012TCU 12/11 A2914 RMK SF5TCU3 SLP872 DENSITY ALT 800FT
15:26
M
13 °C 10 mi 1.200 ft 250° 250° 13 - 22 kt METAR CYUL 121926Z 25013G22KT 10SM -SHRA BKN012TCU OVC030 13/11 A2914 RMK TCU5SC3 SLP872 DENSITY ALT 900FT
15:06
M
14 °C 10 mi 3.000 ft 270° 270° 17 - 25 kt METAR CYUL 121906Z 27017G25KT 10SM -SHRA BKN030TCU OVC050 14/13 A2912 RMK TCU5SC3 SLP865 DENSITY ALT 1000FT
14:55
M
17 °C 12 mi 3.000 ft 240° 240° 16 - 29 kt METAR CYUL 121855Z 24016G29KT 140V260 12SM -SHRA BKN030TCU OVC050 17/13 A2912 RMK TCU5SC3 SLP862 DENSITY ALT 1300FT
14:20
V
21 °C 15 mi 4.000 ft 150° 150° 15 - 23 kt METAR CYUL 121820Z 15015G23KT 15SM BKN040 BKN055 OVC100 21/14 A2912 RMK SC5SC1AC2 SLP861 DENSITY ALT 1800FT
14:00
V
21 °C 15 mi 10.000 ft 160° 160° 21 - 27 kt METAR CYUL 121800Z 16021G27KT 15SM -SHRA SCT050 BKN100 OVC150 21/14 A2913 RMK SC3AC4AC1 CVCTV CLD EMBD SLP866 DENSITY ALT 1800FT
13:41
V
22 °C 15 mi 6.000 ft 160° 160° 21 - 29 kt METAR CYUL 121741Z 16021G29KT 15SM -SHRA FEW030 BKN060 OVC100 22/14 A2913 RMK SC2SC4AC2 CVCTV CLD EMBD SLP866 DENSITY ALT 1900FT
13:00
V
22 °C 15 mi 12.000 ft 150° 150° 18 - 30 kt METAR CYUL 121700Z 15018G30KT 15SM FEW065 SCT090 BKN120 BKN180 22/14 A2915 RMK SC1AC2AC3AC1 CU ASOCTD PRESFR SLP871 DENSITY ALT 1800FT
12:00
V
20 °C 30 mi 9.000 ft 140° 140° 19 - 28 kt METAR CYUL 121600Z 14019G28KT 30SM FEW030 BKN090 BKN170 20/14 A2919 RMK SC2AC4AC1 SLP887 DENSITY ALT 1600FT
11:00
V
19 °C 30 mi 19.000 ft 140° 140° 22 - 31 kt METAR CYUL 121500Z 14022G31KT 30SM FEW025 SCT090 BKN190 BKN250 19/13 A2922 RMK CF1AC3AC4CI1 CF TR CI TR SC ASOCT SLP897 DENSITY ALT 1400FT
10:00
V
18 °C 15 mi 16.000 ft 130° 130° 15 - 23 kt METAR CYUL 121400Z 13015G23KT 15SM SCT040 BKN160 18/13 A2925 RMK SC4AC3 CF ASOCTD SLP909 DENSITY ALT 1300FT
09:00
V
16 °C 15 mi 17.000 ft 090° 090° 10 - 15 kt METAR CYUL 121300Z 09010G15KT 15SM FEW045 SCT120 BKN170 BKN230 16/13 A2929 RMK SC2AC2AC2CI1 SLP922 DENSITY ALT 1000FT
08:00
V
15 °C 15 mi 16.000 ft 110° 110° 13 - 19 kt METAR CYUL 121200Z 11013G19KT 15SM FEW030 BKN160 OVC250 15/12 A2933 RMK CF1AC6CI1 CF TR PRESFR SLP934 DENSITY ALT 900FT
07:00
V
14 °C 15 mi 16.000 ft 100° 100° 11 - 18 kt METAR CYUL 121100Z 10011G18KT 15SM FEW120 BKN160 OVC250 14/11 A2938 RMK AC2AC5CI1 SLP953 DENSITY ALT 700FT
06:00
V
13 °C 15 mi 12.000 ft 100° 100° 8 - 15 kt METAR CYUL 121000Z CCA 10008G15KT 15SM BKN120 BKN160 13/11 A2943 RMK AC5AC2 SLP969 DENSITY ALT 600FT
05:00
M
13 °C 15 mi 3.000 ft 100° 100° 8 kt METAR CYUL 120900Z 10008KT 15SM BKN030 OVC110 13/10 A2946 RMK SC7AC1 SLP980 DENSITY ALT 500FT
04:00
M
13 °C 15 mi 3.000 ft 090° 090° 6 kt METAR CYUL 120800Z 09006KT 15SM -RA BKN030 OVC110 13/10 A2952 RMK SC7AC1 SLP998 DENSITY ALT 400FT
03:00
M
12 °C 12 mi 3.000 ft 090° 090° 10 - 15 kt METAR CYUL 120700Z 09010G15KT 12SM -RA BKN030 OVC110 12/10 A2954 RMK SC7AC1 SLP004
02:00
V
12 °C 12 mi 8.000 ft 110° 110° 11 - 16 kt METAR CYUL 120600Z 11011G16KT 12SM -RA FEW050 BKN080 OVC100 12/10 A2956 RMK CU1AC6AC2 CU TR PRESFR SLP011
Relatar uma mudança